Time;durP1;ratioP1;P1;durP2;ratioP2;P2;SDS_P1;SDS_P2;PMS_P1;PMS_P2;Temp;Humidity;BMP_temperature;BMP_pressure;BME280_temperature;BME280_humidity;BME280_pressure;Samples;Min_cycle;Max_cycle;Signal;HPM_P1;HPM_P2
2021/12/22 00:00:28;;;;;;;41.65;22.40;;;1.80;99.90;;;1.02;100.00;101637.13;4104257;29;20450;-66
2021/12/22 00:02:32;;;;;;;32.70;19.85;;;1.80;99.90;;;1.05;100.00;101643.03;4120387;28;20062;-66
2021/12/22 00:04:38;;;;;;;22.85;15.77;;;1.80;99.90;;;0.91;100.00;101619.47;4105604;28;20027;-66
2021/12/22 00:06:39;;;;;;;30.60;20.67;;;1.80;99.90;;;0.85;100.00;101626.72;4119630;28;20070;-66
2021/12/22 00:08:40;;;;;;;31.00;20.20;;;2.20;99.90;;;1.04;100.00;101620.59;4105412;29;20027;-67
2021/12/22 00:10:43;;;;;;;36.25;21.65;;;1.80;99.90;;;1.19;100.00;101628.53;4105232;28;20491;-67
2021/12/22 00:12:44;;;;;;;33.78;21.40;;;1.90;99.90;;;1.05;100.00;101622.25;4120084;28;20491;-66
2021/12/22 00:14:45;;;;;;;36.70;22.08;;;1.80;99.90;;;0.95;100.00;101628.81;4103565;29;20511;-67
2021/12/22 00:16:46;;;;;;;31.60;19.73;;;1.80;99.90;;;0.95;100.00;101628.81;4120302;28;20030;-67
2021/12/22 00:18:47;;;;;;;31.23;20.77;;;1.30;99.90;;;0.99;100.00;101617.34;4120093;28;20122;-67
2021/12/22 00:20:48;;;;;;;33.97;20.67;;;1.80;99.90;;;0.82;100.00;101611.28;4120184;28;20478;-67
2021/12/22 00:22:49;;;;;;;36.55;21.20;;;1.70;99.90;;;0.79;100.00;101599.28;4119883;28;20081;-66
2021/12/22 00:24:50;;;;;;;35.95;20.83;;;1.70;99.90;;;0.68;100.00;101600.72;4103877;28;20546;-66
2021/12/22 00:26:53;;;;;;;35.10;21.35;;;1.60;99.90;;;0.64;100.00;101609.53;4088202;29;20040;-67
2021/12/22 00:28:54;;;;;;;35.75;22.25;;;1.60;99.90;;;0.56;100.00;101607.31;4105219;28;20510;-66
2021/12/22 00:30:55;;;;;;;37.72;21.55;;;1.50;99.90;;;0.47;100.00;101607.75;4119973;28;20077;-66
2021/12/22 00:33:03;;;;;;;37.08;22.02;;;1.40;99.90;;;0.57;100.00;101602.97;4120024;28;20027;-67
2021/12/22 00:35:05;;;;;;;33.78;20.88;;;1.40;99.90;;;0.65;100.00;101604.28;4105244;28;20027;-67
2021/12/22 00:37:06;;;;;;;33.30;20.88;;;2.30;99.90;;;0.47;100.00;101592.16;4105144;29;20033;-67
2021/12/22 00:39:07;;;;;;;34.17;21.27;;;1.40;99.90;;;0.41;100.00;101592.44;4104972;29;20039;-67
2021/12/22 00:41:08;;;;;;;34.58;22.85;;;2.80;99.90;;;0.37;100.00;101583.13;4119720;28;20031;-66
2021/12/22 00:43:10;;;;;;;39.97;21.05;;;1.40;99.90;;;0.36;100.00;101571.88;4103959;29;20070;-67
2021/12/22 00:45:11;;;;;;;33.90;20.60;;;1.30;99.90;;;0.30;100.00;101563.56;4103879;29;20031;-67
2021/12/22 00:47:13;;;;;;;35.67;20.02;;;1.30;99.90;;;0.52;100.00;101579.81;4119961;28;20065;-67
2021/12/22 00:49:13;;;;;;;35.30;20.95;;;1.30;99.90;;;0.49;100.00;101574.75;4104952;28;20063;-66
2021/12/22 00:51:14;;;;;;;33.78;21.17;;;1.30;99.90;;;0.75;100.00;101582.16;4104900;28;20079;-67
2021/12/22 00:53:16;;;;;;;39.75;22.65;;;1.40;99.90;;;0.77;100.00;101582.09;4104899;28;20031;-67
2021/12/22 00:55:19;;;;;;;35.95;20.38;;;1.40;99.90;;;0.57;100.00;101583.03;4119332;28;20510;-67
2021/12/22 00:57:21;;;;;;;29.35;17.63;;;1.50;99.90;;;0.67;100.00;101583.44;4119510;28;20023;-67
2021/12/22 00:59:22;;;;;;;35.53;20.13;;;1.40;99.90;;;0.27;100.00;101566.31;4119671;28;20027;-67
2021/12/22 01:01:23;;;;;;;38.95;20.38;;;1.40;99.90;;;0.49;100.00;101564.38;4119145;28;20530;-66
2021/12/22 01:03:24;;;;;;;35.90;21.70;;;1.40;99.90;;;0.61;100.00;101563.81;4103402;28;20070;-67
2021/12/22 01:05:25;;;;;;;34.97;22.10;;;1.30;99.90;;;0.59;100.00;101552.66;4119451;28;20470;-66
2021/12/22 01:07:26;;;;;;;37.40;23.65;;;1.40;99.90;;;0.50;100.00;101546.16;4119441;28;20554;-66
2021/12/22 01:09:28;;;;;;;32.70;20.23;;;1.40;99.90;;;0.61;100.00;101573.34;4104279;28;20063;-66
2021/12/22 01:11:29;;;;;;;37.15;21.08;;;1.40;99.90;;;0.57;100.00;101574.41;4119324;28;20080;-66
2021/12/22 01:13:30;;;;;;;36.55;21.90;;;1.40;99.90;;;0.64;100.00;101568.00;4119475;28;20038;-67
2021/12/22 01:15:34;;;;;;;36.78;21.88;;;2.70;99.90;;;0.76;100.00;101567.41;4119431;28;20031;-66
2021/12/22 01:17:41;;;;;;;34.20;19.27;;;1.50;99.90;;;0.63;100.00;101555.97;4119286;28;20178;-66
2021/12/22 01:20:04;;;;;;;40.65;22.73;;;1.50;99.90;;;0.61;100.00;101558.59;4104423;29;20459;-67
2021/12/22 01:22:20;;;;;;;35.17;22.45;;;1.40;99.90;;;0.60;100.00;101561.28;4116715;28;20036;-66
2021/12/22 01:24:28;;;;;;;33.38;21.20;;;1.50;99.90;;;0.68;100.00;101564.34;4117240;28;20031;-67
2021/12/22 01:26:34;;;;;;;34.10;20.92;;;1.50;99.90;;;0.63;100.00;101558.56;4104553;28;20042;-66
2021/12/22 01:28:41;;;;;;;35.92;20.02;;;1.40;99.90;;;0.58;100.00;101563.94;4104497;28;20028;-66
2021/12/22 01:30:45;;;;;;;34.40;20.17;;;1.50;99.90;;;0.61;100.00;101571.59;4118557;28;20027;-67
2021/12/22 01:32:50;;;;;;;34.25;20.73;;;1.40;99.90;;;0.52;100.00;101569.44;4104370;29;20027;-66
2021/12/22 01:34:50;;;;;;;33.85;20.67;;;1.80;99.90;;;0.60;100.00;101563.88;4104369;28;20062;-66
2021/12/22 01:36:52;;;;;;;35.92;21.30;;;1.40;99.90;;;0.62;100.00;101567.25;4104368;28;20023;-66
2021/12/22 01:38:54;;;;;;;36.50;21.63;;;1.40;99.90;;;0.76;100.00;101565.66;4118823;28;20042;-66
2021/12/22 01:40:55;;;;;;;35.40;20.23;;;1.50;99.90;;;0.70;100.00;101562.53;4104393;28;20050;-66
2021/12/22 01:42:57;;;;;;;34.58;19.95;;;1.50;99.90;;;0.61;100.00;101557.75;4104268;28;20034;-66
2021/12/22 01:49:50;;;;;;;33.72;20.50;;;1.40;99.90;;;0.46;100.00;101559.31;4104094;29;20090;-66
2021/12/22 01:52:12;;;;;;;33.50;20.88;;;1.30;99.90;;;0.54;100.00;101567.59;4104010;28;20114;-67
2021/12/22 01:54:21;;;;;;;35.22;22.45;;;1.40;99.90;;;0.37;100.00;101576.16;4103610;28;20039;-66
2021/12/22 01:56:24;;;;;;;33.33;20.55;;;1.40;99.90;;;0.35;100.00;101566.78;4104112;29;20027;-67
2021/12/22 01:58:39;;;;;;;33.50;20.15;;;1.30;99.90;;;0.55;100.00;101579.66;4118510;28;20529;-67
2021/12/22 02:00:40;;;;;;;;;;;1.30;99.90;;;0.40;100.00;101580.38;4118762;28;20112;-66
2021/12/22 02:02:41;;;;;;;36.35;20.17;;;1.20;99.90;;;0.38;100.00;101580.47;4102889;29;19973;-66
2021/12/22 02:04:43;;;;;;;31.95;20.52;;;1.30;99.90;;;0.48;100.00;101573.06;4103987;28;20035;-66
2021/12/22 02:06:47;;;;;;;34.00;20.67;;;1.90;99.90;;;0.65;100.00;101580.09;4118551;28;20055;-66
2021/12/22 02:08:48;;;;;;;26.98;17.25;;;1.20;99.90;;;0.57;100.00;101564.03;4118553;28;20058;-66
2021/12/22 02:10:49;;;;;;;33.53;21.58;;;1.40;99.90;;;0.68;100.00;101567.81;4118702;28;20062;-66
2021/12/22 02:12:53;;;;;;;31.48;20.38;;;1.40;99.90;;;0.66;100.00;101569.59;4118410;28;20057;-66
2021/12/22 02:14:54;;;;;;;34.38;20.13;;;1.40;99.90;;;0.60;100.00;101569.09;4118415;28;20510;-66
2021/12/22 02:16:55;;;;;;;32.28;19.98;;;1.50;99.90;;;0.59;100.00;101568.22;4118696;28;20062;-66
2021/12/22 02:18:59;;;;;;;32.22;19.92;;;1.40;99.90;;;0.63;100.00;101561.97;4118659;28;20034;-66
2021/12/22 02:21:01;;;;;;;;;;;1.50;99.90;;;0.59;100.00;101550.06;4118824;28;20114;-66
2021/12/22 02:23:02;;;;;;;35.00;21.00;;;1.40;99.90;;;0.54;100.00;101552.00;4102599;28;19917;-66
2021/12/22 02:25:12;;;;;;;35.58;20.70;;;1.50;99.90;;;0.45;100.00;101547.25;4118384;28;20038;-66
2021/12/22 02:27:24;;;;;;;32.40;20.65;;;1.40;99.90;;;0.19;100.00;101553.66;4103775;28;20023;-67
2021/12/22 02:29:35;;;;;;;34.28;21.45;;;1.40;99.90;;;0.32;100.00;101553.94;4102330;28;20054;-66
2021/12/22 02:31:43;;;;;;;31.58;20.52;;;1.30;99.90;;;0.30;100.00;101559.19;4095095;28;20062;-66
2021/12/22 02:33:48;;;;;;;32.72;19.77;;;1.20;99.90;;;0.17;100.00;101555.50;4103728;29;20035;-66
2021/12/22 02:38:12;;;;;;;36.13;21.50;;;1.10;99.90;;;0.32;100.00;101562.56;4117028;28;20101;-66
2021/12/22 02:40:17;;;;;;;37.33;20.55;;;2.20;99.90;;;0.32;100.00;101556.53;4117558;28;20097;-66
2021/12/22 02:42:22;;;;;;;37.10;19.77;;;1.20;99.90;;;0.15;100.00;101562.50;4103508;28;20031;-67
2021/12/22 02:44:23;;;;;;;33.40;20.40;;;0.60;99.90;;;0.24;100.00;101561.25;4118111;28;20030;-66
2021/12/22 02:46:33;;;;;;;35.00;20.10;;;1.40;99.90;;;0.35;100.00;101562.44;4118467;28;20035;-66
2021/12/22 02:48:34;;;;;;;30.73;19.33;;;1.20;99.90;;;0.24;100.00;101561.25;4118330;28;20034;-67
2021/12/22 02:50:36;;;;;;;30.50;18.55;;;1.20;99.90;;;0.06;100.00;101549.13;4118407;28;20031;-67
2021/12/22 02:52:50;;;;;;;29.15;18.73;;;1.10;99.90;;;-0.15;100.00;101546.56;4118342;28;20438;-66
2021/12/22 02:54:55;;;;;;;25.90;17.15;;;1.00;99.90;;;-0.30;100.00;101562.78;4103407;29;20046;-66
2021/12/22 02:57:07;;;;;;;28.77;18.85;;;1.00;99.90;;;-0.16;100.00;101564.78;4117982;28;20041;-66
2021/12/22 02:59:28;;;;;;;30.10;18.80;;;0.90;99.90;;;0.03;100.00;101578.59;4103598;29;20028;-67
2021/12/22 03:05:42;;;;;;;38.15;20.77;;;1.00;99.90;;;0.02;100.00;101551.00;4117439;28;20565;-66
2021/12/22 03:07:45;;;;;;;30.20;20.50;;;0.90;99.90;;;0.03;100.00;101554.44;4102217;28;20038;-66
2021/12/22 03:09:59;;;;;;;28.02;18.25;;;1.00;99.90;;;-0.06;100.00;101556.53;4103054;28;20059;-66
2021/12/22 03:12:09;;;;;;;32.15;18.85;;;-0.30;99.90;;;0.02;100.00;101563.13;4117765;28;20030;-66
2021/12/22 03:14:13;;;;;;;27.88;19.20;;;1.00;99.90;;;-0.07;100.00;101564.38;4118132;28;20670;-66
2021/12/22 03:16:16;;;;;;;30.40;19.08;;;1.00;99.90;;;-0.07;100.00;101570.41;4118134;28;20027;-66
2021/12/22 03:18:18;;;;;;;29.98;19.02;;;0.90;99.90;;;-0.04;100.00;101570.28;4118171;28;20084;-68
2021/12/22 03:20:19;;;;;;;28.55;18.58;;;0.90;99.90;;;0.05;100.00;101571.63;4102095;28;20558;-66
2021/12/22 03:22:21;;;;;;;29.90;17.65;;;0.90;99.90;;;-0.17;100.00;101566.53;4118073;28;20082;-67
2021/12/22 03:24:22;;;;;;;27.60;17.55;;;0.80;99.90;;;-0.28;100.00;101561.00;4103280;28;20070;-66
2021/12/22 03:26:24;;;;;;;30.13;19.90;;;0.80;99.90;;;-0.22;100.00;101571.09;4121211;28;20029;-66
2021/12/22 03:28:25;;;;;;;30.00;19.85;;;0.70;99.90;;;-0.23;100.00;101564.22;4104948;29;20028;-66
2021/12/22 03:30:26;;;;;;;33.08;19.73;;;0.70;99.90;;;-0.23;100.00;101564.22;4106190;29;20073;-66
2021/12/22 03:32:27;;;;;;;29.10;18.27;;;0.70;99.90;;;-0.16;100.00;101547.50;4106140;28;20038;-66
2021/12/22 03:34:28;;;;;;;29.60;18.67;;;1.30;99.90;;;-0.13;100.00;101557.72;4106324;28;20031;-66
2021/12/22 03:36:29;;;;;;;27.75;17.50;;;0.70;99.90;;;-0.04;100.00;101554.72;4106196;28;20106;-67
2021/12/22 03:38:32;;;;;;;27.38;16.83;;;0.70;99.90;;;-0.10;100.00;101549.81;4106153;29;20081;-66
2021/12/22 03:40:33;;;;;;;26.40;17.65;;;0.80;99.90;;;-0.11;100.00;101547.28;4120394;28;20035;-66
2021/12/22 03:42:34;;;;;;;23.75;16.75;;;0.80;99.90;;;-0.16;100.00;101538.88;4121049;28;20035;-66
2021/12/22 03:44:35;;;;;;;26.55;16.88;;;1.10;99.90;;;-0.21;100.00;101543.41;4106130;28;20117;-66
2021/12/22 03:46:37;;;;;;;28.50;17.73;;;0.80;99.90;;;-0.32;100.00;101546.47;4120855;28;20031;-66
2021/12/22 03:48:38;;;;;;;25.33;16.23;;;0.70;99.90;;;-0.35;100.00;101550.94;4120611;28;20035;-66
2021/12/22 03:50:39;;;;;;;27.20;16.42;;;0.70;99.90;;;-0.32;100.00;101551.66;4120810;28;20019;-66
2021/12/22 03:52:41;;;;;;;24.02;16.20;;;0.70;99.90;;;-0.18;100.00;101549.28;4105951;28;20030;-66
2021/12/22 03:54:42;;;;;;;24.52;15.40;;;0.30;99.90;;;-0.21;100.00;101540.81;4120451;28;20101;-66
2021/12/22 03:56:43;;;;;;;25.52;17.90;;;0.70;99.90;;;-0.35;100.00;101544.00;4105774;28;20087;-66
2021/12/22 03:58:43;;;;;;;25.67;16.95;;;0.70;99.90;;;-0.16;100.00;101541.44;4120767;28;20065;-66
2021/12/22 04:00:45;;;;;;;26.90;15.82;;;0.70;99.90;;;-0.11;100.00;101536.91;4120682;28;20521;-66
2021/12/22 04:02:46;;;;;;;32.40;17.58;;;0.70;99.90;;;-0.12;100.00;101541.22;4120545;28;20027;-66
2021/12/22 04:04:49;;;;;;;24.63;15.30;;;0.80;99.90;;;-0.27;100.00;101536.72;4105531;28;20057;-66
2021/12/22 04:06:51;;;;;;;25.80;16.17;;;0.70;99.90;;;-0.14;100.00;101537.88;4120272;28;20041;-66
2021/12/22 04:08:52;;;;;;;26.00;17.63;;;0.70;99.90;;;-0.13;100.00;101544.75;4120152;28;20054;-66
2021/12/22 04:10:53;;;;;;;25.33;16.77;;;-0.20;99.90;;;-0.28;100.00;101537.66;4120495;28;20022;-66
2021/12/22 04:12:56;;;;;;;24.13;15.82;;;0.70;99.90;;;-0.23;100.00;101542.63;4105559;28;20055;-66
2021/12/22 04:14:57;;;;;;;28.55;17.52;;;1.20;99.90;;;-0.37;100.00;101551.03;4120539;28;20026;-66
2021/12/22 04:16:58;;;;;;;27.80;17.23;;;0.70;99.90;;;-0.32;100.00;101558.59;4120595;28;20031;-66
2021/12/22 04:18:59;;;;;;;23.05;16.05;;;0.80;99.90;;;-0.11;100.00;101548.13;4104225;29;20113;-66
2021/12/22 04:21:00;;;;;;;26.10;16.08;;;0.70;99.90;;;-0.08;100.00;101550.56;4105329;28;20479;-66
2021/12/22 04:23:02;;;;;;;24.73;15.70;;;0.70;99.90;;;-0.17;100.00;101543.19;4105498;28;20032;-66
2021/12/22 04:25:05;;;;;;;26.25;16.25;;;0.70;99.90;;;-0.14;100.00;101548.25;4120023;28;20034;-66
2021/12/22 04:27:06;;;;;;;25.00;16.38;;;0.70;99.90;;;-0.10;100.00;101548.97;4105422;29;20031;-66
2021/12/22 04:29:10;;;;;;;27.25;15.93;;;0.80;99.90;;;-0.03;100.00;101548.59;4105196;28;20501;-66
2021/12/22 04:31:11;;;;;;;25.45;15.95;;;0.80;99.90;;;0.06;100.00;101555.13;4120002;28;20019;-66
2021/12/22 04:33:14;;;;;;;24.45;16.88;;;0.90;99.90;;;0.10;100.00;101543.72;4120104;28;20030;-66
2021/12/22 04:35:16;;;;;;;28.38;16.27;;;0.90;99.90;;;0.22;100.00;101550.09;4119990;28;20395;-66
2021/12/22 04:37:17;;;;;;;27.00;17.48;;;0.90;99.90;;;0.13;100.00;101540.13;4119329;28;20118;-66
2021/12/22 04:39:18;;;;;;;24.83;16.67;;;1.30;99.90;;;0.12;100.00;101538.47;4119762;28;20388;-66
2021/12/22 04:41:18;;;;;;;23.17;16.17;;;0.90;99.90;;;0.01;100.00;101531.16;4097027;28;20034;-66
2021/12/22 04:43:19;;;;;;;22.45;16.23;;;0.90;99.90;;;-0.08;100.00;101534.16;4105141;28;20172;-66
2021/12/22 04:45:21;;;;;;;24.95;16.95;;;0.90;99.90;;;-0.26;100.00;101533.25;4105040;28;20045;-66
2021/12/22 04:47:21;;;;;;;23.80;15.13;;;0.80;99.90;;;-0.22;100.00;101537.38;4119872;28;20034;-66
2021/12/22 04:49:22;;;;;;;24.70;15.82;;;0.70;99.90;;;-0.19;100.00;101545.03;4105039;28;20411;-66
2021/12/22 04:51:29;;;;;;;24.27;15.55;;;0.70;99.90;;;-0.08;100.00;101547.13;4119694;28;20075;-66
2021/12/22 04:53:40;;;;;;;24.98;16.35;;;0.70;99.90;;;-0.23;100.00;101553.84;4103725;29;20027;-67
2021/12/22 04:55:41;;;;;;;25.42;16.17;;;0.70;99.90;;;-0.19;100.00;101554.56;4119637;28;20027;-66
2021/12/22 04:57:42;;;;;;;24.92;16.83;;;0.70;99.90;;;-0.14;100.00;101542.22;4103653;28;20117;-66
2021/12/22 04:59:43;;;;;;;25.92;17.08;;;1.30;99.90;;;-0.10;100.00;101552.41;4119693;28;20434;-66
2021/12/22 05:01:45;;;;;;;24.73;16.73;;;0.70;99.90;;;-0.06;100.00;101553.94;4118840;28;20090;-66
2021/12/22 05:03:46;;;;;;;25.98;16.58;;;0.80;99.90;;;0.03;100.00;101549.25;4119672;28;20039;-66
2021/12/22 05:05:47;;;;;;;24.38;15.70;;;0.80;99.90;;;-0.04;100.00;101538.31;4104538;28;20106;-66
2021/12/22 05:07:48;;;;;;;25.60;17.42;;;0.80;99.90;;;-0.08;100.00;101550.56;4104771;28;20517;-66
2021/12/22 05:09:49;;;;;;;29.33;17.63;;;0.80;99.90;;;-0.11;100.00;101561.06;4119054;28;20030;-66
2021/12/22 05:11:51;;;;;;;27.52;17.50;;;0.80;99.90;;;-0.31;100.00;101555.94;4119428;28;20450;-66
2021/12/22 05:13:51;;;;;;;22.38;16.05;;;0.00;99.90;;;-0.14;100.00;101553.44;4095769;29;20030;-66
2021/12/22 05:15:52;;;;;;;27.70;17.50;;;0.70;99.90;;;-0.14;100.00;101542.22;4099537;29;20032;-66
2021/12/22 05:19:54;;;;;;;27.58;17.27;;;0.80;99.90;;;0.15;100.00;101538.31;4119546;28;20038;-66
2021/12/22 05:21:56;;;;;;;26.50;16.48;;;0.80;99.90;;;0.10;100.00;101540.28;4104532;28;20023;-66
2021/12/22 05:23:57;;;;;;;26.92;17.83;;;0.90;99.90;;;0.18;100.00;101549.38;4103026;29;20031;-66
2021/12/22 05:25:58;;;;;;;26.35;17.08;;;0.90;99.90;;;0.18;100.00;101553.75;4104364;28;20097;-66
2021/12/22 05:27:59;;;;;;;27.70;16.92;;;0.90;99.90;;;0.20;100.00;101555.34;4119284;28;20105;-66
2021/12/22 05:30:01;;;;;;;25.00;16.77;;;1.00;99.90;;;0.14;100.00;101562.56;4104338;28;20027;-66
2021/12/22 05:32:03;;;;;;;26.42;16.80;;;1.00;99.90;;;0.09;100.00;101562.75;4119116;28;20119;-66
2021/12/22 05:34:05;;;;;;;28.20;17.38;;;1.00;99.90;;;0.24;100.00;101556.88;4118906;28;20034;-66
2021/12/22 05:36:06;;;;;;;25.48;17.35;;;1.00;99.90;;;0.21;100.00;101553.63;4119269;28;20031;-66
2021/12/22 05:38:07;;;;;;;25.52;17.02;;;1.00;99.90;;;0.34;100.00;101555.56;4119121;28;20085;-66
2021/12/22 05:40:09;;;;;;;28.23;17.65;;;1.30;99.90;;;0.43;100.00;101539.56;4104066;28;20122;-66
2021/12/22 05:42:10;;;;;;;24.92;17.10;;;1.20;99.90;;;0.36;100.00;101539.94;4118964;28;20037;-66
2021/12/22 05:44:11;;;;;;;24.30;16.27;;;1.10;99.90;;;0.32;100.00;101536.63;4118999;28;20038;-66
2021/12/22 05:46:12;;;;;;;25.42;16.13;;;1.10;99.90;;;0.26;100.00;101539.50;4126740;28;20030;-66
2021/12/22 05:48:13;;;;;;;27.75;17.50;;;1.00;99.90;;;0.22;100.00;101539.72;4102123;28;20031;-66
2021/12/22 05:50:14;;;;;;;28.17;18.60;;;1.10;99.90;;;0.13;100.00;101542.72;4118676;28;20034;-66
2021/12/22 05:52:15;;;;;;;28.25;18.88;;;1.00;99.90;;;-0.09;100.00;101548.88;4118875;28;20505;-66
2021/12/22 05:54:16;;;;;;;27.75;18.35;;;0.90;99.90;;;0.06;100.00;101549.13;4134773;28;20038;-66
2021/12/22 05:56:17;;;;;;;28.77;19.10;;;0.90;99.90;;;-0.06;100.00;101540.16;4104079;28;20082;-66
2021/12/22 05:58:18;;;;;;;28.08;18.83;;;0.90;99.90;;;-0.39;100.00;101545.06;4134720;28;20080;-66
2021/12/22 06:00:22;;;;;;;29.40;19.45;;;0.80;99.90;;;-0.17;100.00;101542.34;4104055;28;20063;-66
2021/12/22 06:02:23;;;;;;;23.23;14.45;;;0.80;99.90;;;-0.03;100.00;101551.19;4104102;28;20086;-66
2021/12/22 06:04:24;;;;;;;29.70;17.75;;;0.90;99.90;;;-0.03;100.00;101551.19;4102752;29;20027;-66
2021/12/22 06:06:24;;;;;;;30.80;19.40;;;1.50;99.90;;;-0.15;100.00;101556.94;4103739;29;20523;-66
2021/12/22 06:08:25;;;;;;;28.55;18.23;;;0.80;99.90;;;-0.15;100.00;101551.75;4118837;28;20054;-66
2021/12/22 06:10:26;;;;;;;27.08;17.38;;;0.80;99.90;;;-0.15;100.00;101553.53;4103516;28;20039;-66
2021/12/22 06:12:27;;;;;;;29.23;18.05;;;-0.10;99.90;;;-0.29;100.00;101556.69;4118725;28;20488;-66
2021/12/22 06:14:28;;;;;;;30.58;19.33;;;0.70;99.90;;;-0.23;100.00;101561.63;4103807;28;20081;-66
2021/12/22 06:16:30;;;;;;;27.63;17.50;;;0.70;99.90;;;-0.17;100.00;101571.72;4103980;28;20027;-66
2021/12/22 06:18:31;;;;;;;28.92;18.67;;;0.70;99.90;;;-0.07;100.00;101559.19;4103909;28;20034;-66
2021/12/22 06:20:34;;;;;;;26.52;17.90;;;0.70;99.90;;;-0.21;100.00;101561.56;4118586;28;20034;-66
2021/12/22 06:22:36;;;;;;;28.65;19.52;;;0.70;99.90;;;-0.09;100.00;101572.22;4102334;28;20034;-66
2021/12/22 06:24:37;;;;;;;28.77;18.00;;;0.80;99.90;;;-0.01;100.00;101570.16;4103630;28;20031;-66
2021/12/22 06:26:38;;;;;;;33.70;18.83;;;1.80;99.90;;;-0.17;100.00;101566.53;4103777;28;20066;-66
2021/12/22 06:28:39;;;;;;;28.88;18.25;;;0.70;99.90;;;-0.08;100.00;101579.09;4103689;28;20031;-66
2021/12/22 06:30:40;;;;;;;30.90;19.48;;;0.80;99.90;;;-0.16;100.00;101576.00;4118114;28;20039;-66
2021/12/22 06:32:41;;;;;;;33.78;19.45;;;0.70;99.90;;;-0.51;100.00;101557.72;4103670;28;20023;-66
2021/12/22 06:34:42;;;;;;;30.08;18.92;;;0.70;99.90;;;-0.43;100.00;101564.25;4118461;28;20070;-66
2021/12/22 06:36:43;;;;;;;31.85;19.40;;;0.40;99.90;;;-0.46;100.00;101551.41;4118413;28;20019;-66
2021/12/22 06:38:44;;;;;;;33.53;20.25;;;1.10;99.90;;;-0.50;100.00;101559.38;4118060;28;20023;-66
2021/12/22 06:40:45;;;;;;;32.75;21.25;;;0.50;99.90;;;-0.48;100.00;101557.59;4102386;29;20585;-66
2021/12/22 06:42:47;;;;;;;35.95;21.30;;;0.40;99.90;;;-0.62;100.00;101548.63;4103750;29;20082;-66
2021/12/22 06:44:47;;;;;;;36.00;21.08;;;0.40;99.90;;;-0.65;100.00;101558.28;4103573;28;20034;-66
2021/12/22 06:46:49;;;;;;;38.28;21.95;;;0.40;99.90;;;-0.49;100.00;101569.69;4118396;28;20023;-66
2021/12/22 06:48:50;;;;;;;34.75;21.48;;;0.40;99.90;;;-0.53;100.00;101565.53;4103496;28;20491;-66
2021/12/22 06:50:51;;;;;;;34.58;21.52;;;0.40;99.90;;;-0.29;100.00;101564.47;4103614;28;20038;-66
2021/12/22 06:52:52;;;;;;;31.10;19.85;;;0.50;99.90;;;-0.24;100.00;101556.53;4119817;28;20026;-66
2021/12/22 06:54:53;;;;;;;30.10;20.23;;;0.50;99.90;;;-0.18;100.00;101559.66;4104529;28;20106;-66
2021/12/22 06:56:54;;;;;;;30.48;19.92;;;0.60;99.90;;;-0.28;100.00;101557.56;4119427;28;20506;-67
2021/12/22 06:58:57;;;;;;;33.35;20.38;;;0.60;99.90;;;-0.30;100.00;101562.78;4104570;28;20054;-66
2021/12/22 07:00:59;;;;;;;29.20;18.42;;;0.60;99.90;;;-0.27;100.00;101565.25;4121771;28;20027;-67
2021/12/22 07:03:00;;;;;;;35.38;21.05;;;0.60;99.90;;;-0.52;100.00;101561.19;4122242;28;20110;-67
2021/12/22 07:05:03;;;;;;;32.13;20.13;;;0.60;99.90;;;-0.47;100.00;101560.09;4107774;28;20019;-67
2021/12/22 07:07:04;;;;;;;31.48;19.45;;;0.50;99.90;;;-0.24;100.00;101559.13;4138023;28;20133;-67
2021/12/22 07:09:07;;;;;;;36.30;22.20;;;0.60;99.90;;;-0.11;100.00;101563.66;4138358;28;20022;-66
2021/12/22 07:11:09;;;;;;;30.73;20.38;;;0.60;99.90;;;0.03;100.00;101567.41;4138620;28;20065;-67
2021/12/22 07:13:11;;;;;;;33.30;19.95;;;0.70;99.90;;;0.04;100.00;101571.66;4138523;28;20109;-67
2021/12/22 07:15:14;;;;;;;37.42;22.27;;;0.70;99.90;;;-0.27;100.00;101562.66;4138202;28;20084;-67
2021/12/22 07:17:15;;;;;;;31.57;20.30;;;0.70;99.90;;;-0.25;100.00;101558.25;4107623;28;20030;-67
2021/12/22 07:19:16;;;;;;;31.55;19.98;;;0.70;99.90;;;-0.23;100.00;101548.66;4107441;28;20037;-67
2021/12/22 07:21:18;;;;;;;31.55;20.10;;;0.60;99.90;;;-0.19;100.00;101545.03;4107347;29;20039;-67
2021/12/22 07:23:19;;;;;;;33.08;18.90;;;0.70;99.90;;;-0.32;100.00;101549.06;4106268;29;20462;-67
2021/12/22 07:25:24;;;;;;;32.88;20.27;;;0.60;99.90;;;-0.49;100.00;101561.91;4106976;28;20042;-67
2021/12/22 07:27:27;;;;;;;36.22;21.55;;;0.60;99.90;;;-0.30;100.00;101570.56;4105951;28;20190;-67
2021/12/22 07:29:28;;;;;;;33.17;20.20;;;0.60;99.90;;;-0.32;100.00;101567.22;4106230;29;20036;-67
2021/12/22 07:31:29;;;;;;;31.30;20.05;;;0.80;99.90;;;-0.35;100.00;101567.34;4121889;28;20043;-67
2021/12/22 07:33:30;;;;;;;38.67;20.92;;;0.50;99.90;;;-0.43;100.00;101566.84;4100569;28;20035;-67
2021/12/22 07:35:42;;;;;;;34.00;19.13;;;0.60;99.90;;;-0.49;100.00;101559.31;4107343;28;20027;-67
2021/12/22 07:38:01;;;;;;;37.22;20.35;;;0.60;99.90;;;-0.67;100.00;101562.69;4121459;28;20514;-67
2021/12/22 07:40:05;;;;;;;36.58;20.38;;;0.50;99.90;;;-0.60;100.00;101551.19;4106631;28;20567;-67
2021/12/22 07:42:06;;;;;;;36.65;19.38;;;0.40;99.90;;;-0.58;100.00;101557.13;4121345;28;20034;-67
2021/12/22 07:44:07;;;;;;;41.22;20.65;;;0.40;99.90;;;-0.65;100.00;101550.50;4121730;28;20403;-67
2021/12/22 07:46:08;;;;;;;38.72;21.95;;;0.40;99.90;;;-0.53;100.00;101570.72;4105477;28;20035;-67
2021/12/22 07:48:10;;;;;;;35.85;21.48;;;0.40;99.90;;;-0.44;100.00;101565.16;4106940;28;20035;-67
2021/12/22 07:50:11;;;;;;;31.05;20.23;;;0.40;99.90;;;-0.38;100.00;101567.47;4106786;28;20042;-67
2021/12/22 07:52:12;;;;;;;34.40;19.70;;;0.50;99.90;;;-0.50;100.00;101567.16;4105681;28;20034;-67
2021/12/22 07:54:13;;;;;;;32.35;20.05;;;0.40;99.90;;;-0.34;100.00;101571.63;4121479;28;20530;-67
2021/12/22 07:56:15;;;;;;;39.80;22.48;;;-0.50;99.90;;;-0.28;100.00;101573.09;4121740;28;20051;-66
2021/12/22 07:58:16;;;;;;;33.00;19.10;;;0.50;99.90;;;-0.29;100.00;101574.84;4121543;28;20030;-67
2021/12/22 08:00:17;;;;;;;37.95;22.00;;;0.70;99.90;;;-0.48;100.00;101558.44;4106826;28;20031;-66
2021/12/22 08:02:18;;;;;;;37.63;21.63;;;0.10;99.90;;;-0.51;100.00;101562.91;4121259;28;20033;-67
2021/12/22 08:04:20;;;;;;;30.98;19.63;;;0.50;99.90;;;-0.54;100.00;101556.09;4106701;28;20407;-66
2021/12/22 08:06:21;;;;;;;31.60;18.58;;;0.50;99.90;;;-0.38;100.00;101564.03;4121439;28;20058;-67
2021/12/22 08:08:22;;;;;;;35.55;20.50;;;0.50;99.90;;;-0.49;100.00;101556.72;4104391;28;20042;-66
2021/12/22 08:10:23;;;;;;;30.55;18.75;;;0.50;99.90;;;-0.53;100.00;101555.16;4119557;28;20035;-66
2021/12/22 08:12:24;;;;;;;30.40;19.48;;;0.80;99.90;;;-0.48;100.00;101555.84;4119382;28;20027;-66
2021/12/22 08:14:24;;;;;;;31.40;19.73;;;0.50;99.90;;;-0.51;100.00;101553.38;4105540;28;20102;-66
2021/12/22 08:16:25;;;;;;;31.02;19.05;;;2.00;99.90;;;-0.65;100.00;101555.69;4105611;29;20023;-65
2021/12/22 08:18:27;;;;;;;31.05;17.95;;;0.40;99.90;;;-0.53;100.00;101559.50;4114700;28;20530;-66
2021/12/22 08:20:28;;;;;;;34.60;20.15;;;2.10;99.90;;;-0.81;100.00;101565.03;4119648;28;20042;-65
2021/12/22 08:22:30;;;;;;;33.60;19.65;;;1.10;99.90;;;-0.81;100.00;101560.69;4135922;28;20030;-66
2021/12/22 08:24:31;;;;;;;30.02;19.33;;;1.70;99.90;;;-0.75;100.00;101562.19;4099277;29;20032;-66
2021/12/22 08:26:33;;;;;;;34.03;19.50;;;0.30;99.90;;;-0.74;100.00;101574.22;4120236;28;20514;-66
2021/12/22 08:28:35;;;;;;;31.00;19.23;;;0.70;99.90;;;-0.81;100.00;101565.03;4105337;28;20027;-66
2021/12/22 08:30:37;;;;;;;30.35;18.55;;;0.30;99.90;;;-0.66;100.00;101572.97;4120072;28;20035;-66
2021/12/22 08:32:38;;;;;;;31.02;19.23;;;0.40;99.90;;;-0.59;100.00;101577.00;4105178;28;20030;-66
2021/12/22 08:34:42;;;;;;;35.92;20.25;;;0.30;99.90;;;-0.68;100.00;101581.72;4105376;28;20027;-66